createdAt,value
2023-05-14T00:00:11.166Z,0
2023-05-14T00:01:25.643Z,0
2023-05-14T00:02:40.099Z,0
2023-05-14T00:03:54.563Z,0
2023-05-14T00:05:09.031Z,0
2023-05-14T00:06:23.502Z,0
2023-05-14T00:07:37.093Z,0
2023-05-14T00:08:51.552Z,0
2023-05-14T00:10:06.029Z,0
2023-05-14T00:11:20.503Z,0
2023-05-14T00:12:34.969Z,0
2023-05-14T00:15:03.024Z,0
2023-05-14T00:16:16.609Z,0
2023-05-14T00:17:31.064Z,0
2023-05-14T00:20:00.001Z,0
2023-05-14T00:21:14.483Z,0
2023-05-14T00:22:28.937Z,0
2023-05-14T00:23:43.420Z,0
2023-05-14T00:24:57.877Z,0
2023-05-14T00:26:12.353Z,0
2023-05-14T00:27:26.808Z,0
2023-05-14T00:29:55.741Z,0
2023-05-14T00:31:09.358Z,0
2023-05-14T00:32:22.950Z,0
2023-05-14T00:33:37.416Z,0
2023-05-14T00:34:51.880Z,0
2023-05-14T00:36:06.354Z,0
2023-05-14T00:37:20.810Z,0
2023-05-14T00:39:49.761Z,0
2023-05-14T00:41:04.226Z,0
2023-05-14T00:42:18.688Z,0
2023-05-14T00:43:33.155Z,0
2023-05-14T00:44:47.617Z,0
2023-05-14T00:46:02.080Z,0
2023-05-14T00:47:16.561Z,0
2023-05-14T00:49:44.602Z,0
2023-05-14T00:50:58.225Z,0
2023-05-14T00:52:11.802Z,0
2023-05-14T00:53:26.289Z,0
2023-05-14T00:54:40.755Z,0
2023-05-14T00:55:55.213Z,0
2023-05-14T00:57:09.688Z,0
2023-05-14T00:58:24.148Z,0
2023-05-14T00:59:38.605Z,0
2023-05-14T01:00:53.073Z,0
2023-05-14T01:02:07.549Z,0
2023-05-14T01:03:21.154Z,0
2023-05-14T01:05:49.224Z,0
2023-05-14T01:07:03.692Z,0
2023-05-14T01:08:18.158Z,0
2023-05-14T01:09:32.619Z,0
2023-05-14T01:10:47.091Z,0
2023-05-14T01:12:01.546Z,0
2023-05-14T01:13:16.029Z,0
2023-05-14T01:14:30.486Z,0
2023-05-14T01:15:44.951Z,0
2023-05-14T01:16:59.415Z,0
2023-05-14T01:18:13.909Z,0
2023-05-14T01:19:28.359Z,0
2023-05-14T01:20:41.960Z,0
2023-05-14T01:21:56.422Z,0
2023-05-14T01:23:10.889Z,0
2023-05-14T01:24:25.358Z,0
2023-05-14T01:25:39.819Z,0
2023-05-14T01:26:54.287Z,0
2023-05-14T01:28:08.748Z,0
2023-05-14T01:29:22.362Z,0
2023-05-14T01:30:36.837Z,0
2023-05-14T01:31:50.423Z,0
2023-05-14T01:33:04.891Z,0
2023-05-14T01:34:19.364Z,0
2023-05-14T01:35:33.816Z,0
2023-05-14T01:36:48.291Z,0
2023-05-14T01:38:02.752Z,0
2023-05-14T01:39:17.225Z,0
2023-05-14T01:40:31.703Z,0
2023-05-14T01:41:46.167Z,0
2023-05-14T01:43:00.626Z,0
2023-05-14T01:44:15.095Z,0
2023-05-14T01:45:29.556Z,0
2023-05-14T01:46:44.023Z,0
2023-05-14T01:47:57.625Z,0
2023-05-14T01:49:12.087Z,0
2023-05-14T01:50:26.564Z,0
2023-05-14T01:51:41.033Z,0
2023-05-14T01:52:55.499Z,0
2023-05-14T01:54:09.947Z,0
2023-05-14T01:55:24.417Z,0
2023-05-14T01:56:38.896Z,0
2023-05-14T01:59:07.833Z,0
2023-05-14T02:00:22.293Z,0
2023-05-14T02:01:36.761Z,0
2023-05-14T02:02:51.232Z,0
2023-05-14T02:04:05.687Z,0
2023-05-14T02:05:20.157Z,0
2023-05-14T02:06:33.759Z,0
2023-05-14T02:07:48.215Z,0
2023-05-14T02:09:02.687Z,0
2023-05-14T02:10:17.158Z,0
2023-05-14T02:11:31.635Z,0
2023-05-14T02:14:00.564Z,0
2023-05-14T02:15:15.030Z,0
2023-05-14T02:16:29.495Z,0
2023-05-14T02:17:43.964Z,0
2023-05-14T02:18:58.433Z,0
2023-05-14T02:20:12.901Z,0
2023-05-14T02:21:27.362Z,0
2023-05-14T02:22:40.956Z,0
2023-05-14T02:23:55.426Z,0
2023-05-14T02:25:09.885Z,0
2023-05-14T02:26:24.368Z,0
2023-05-14T02:27:38.838Z,0
2023-05-14T02:28:53.284Z,0
2023-05-14T02:30:07.759Z,0
2023-05-14T02:31:22.245Z,0
2023-05-14T02:32:36.685Z,0
2023-05-14T02:33:51.154Z,0
2023-05-14T02:35:05.623Z,0
2023-05-14T02:36:20.092Z,0
2023-05-14T02:38:49.025Z,0
2023-05-14T02:40:02.629Z,0
2023-05-14T02:41:17.101Z,0
2023-05-14T02:42:31.559Z,0
2023-05-14T02:43:46.031Z,0
2023-05-14T02:45:00.496Z,0
2023-05-14T02:46:14.958Z,0
2023-05-14T02:48:43.901Z,0
2023-05-14T02:49:58.355Z,0
2023-05-14T02:51:12.825Z,0
2023-05-14T02:53:41.780Z,0
2023-05-14T02:54:56.205Z,1
2023-05-14T02:56:10.636Z,2
2023-05-14T02:57:25.020Z,1
2023-05-14T02:58:39.448Z,1
2023-05-14T02:59:53.855Z,2
2023-05-14T03:01:08.282Z,2
2023-05-14T03:02:21.830Z,2
2023-05-14T03:03:36.247Z,3
2023-05-14T03:04:50.654Z,1
2023-05-14T03:06:04.000Z,2
2023-05-14T03:08:33.020Z,4
2023-05-14T03:09:47.430Z,2
2023-05-14T03:11:01.857Z,4
2023-05-14T03:12:16.273Z,8
2023-05-14T03:13:30.689Z,7
2023-05-14T03:14:45.086Z,8
2023-05-14T03:15:59.507Z,9
2023-05-14T03:17:13.921Z,6
2023-05-14T03:18:28.341Z,9
2023-05-14T03:19:42.741Z,10
2023-05-14T03:20:57.159Z,14
2023-05-14T03:22:10.698Z,13
2023-05-14T03:23:25.115Z,13
2023-05-14T03:24:39.517Z,19
2023-05-14T03:25:53.936Z,22
2023-05-14T03:28:22.759Z,22
2023-05-14T03:29:37.171Z,26
2023-05-14T03:30:51.589Z,31
2023-05-14T03:32:05.996Z,31
2023-05-14T03:33:20.422Z,28
2023-05-14T03:34:33.979Z,31
2023-05-14T03:35:47.512Z,31
2023-05-14T03:37:01.917Z,31
2023-05-14T03:38:16.327Z,31
2023-05-14T03:39:30.748Z,32
2023-05-14T03:40:45.176Z,36
2023-05-14T03:41:59.568Z,42
2023-05-14T03:43:13.988Z,42
2023-05-14T03:44:28.410Z,49
2023-05-14T03:45:42.826Z,54
2023-05-14T03:46:57.225Z,58
2023-05-14T03:48:11.648Z,63
2023-05-14T03:49:26.059Z,66
2023-05-14T03:50:40.488Z,71
2023-05-14T03:51:54.878Z,77
2023-05-14T03:53:08.420Z,82
2023-05-14T03:54:22.841Z,88
2023-05-14T03:55:37.245Z,94
2023-05-14T03:56:51.669Z,100
2023-05-14T03:58:06.074Z,106
2023-05-14T03:59:20.500Z,110
2023-05-14T04:00:34.915Z,120
2023-05-14T04:01:49.324Z,121
2023-05-14T04:03:03.742Z,128
2023-05-14T04:04:18.159Z,139
2023-05-14T04:05:32.574Z,138
2023-05-14T04:06:46.984Z,143
2023-05-14T04:08:01.380Z,147
2023-05-14T04:09:15.797Z,149
2023-05-14T04:10:30.219Z,156
2023-05-14T04:11:43.755Z,159
2023-05-14T04:14:12.585Z,159
2023-05-14T04:15:27.011Z,161
2023-05-14T04:17:55.829Z,169
2023-05-14T04:19:10.225Z,167
2023-05-14T04:20:24.652Z,170
2023-05-14T04:21:39.067Z,174
2023-05-14T04:22:53.464Z,180
2023-05-14T04:24:07.885Z,183
2023-05-14T04:25:21.412Z,192
2023-05-14T04:27:50.252Z,206
2023-05-14T04:29:03.806Z,220
2023-05-14T04:30:18.219Z,239
2023-05-14T04:31:31.743Z,259
2023-05-14T04:32:46.179Z,275
2023-05-14T04:34:00.595Z,286
2023-05-14T04:35:14.997Z,296
2023-05-14T04:36:29.400Z,308
2023-05-14T04:37:43.821Z,322
2023-05-14T04:38:58.233Z,339
2023-05-14T04:40:12.651Z,340
2023-05-14T04:41:26.202Z,355
2023-05-14T04:42:40.620Z,366
2023-05-14T04:43:54.170Z,386
2023-05-14T04:45:08.562Z,405
2023-05-14T04:46:22.996Z,426
2023-05-14T04:47:37.407Z,439
2023-05-14T04:48:51.810Z,462
2023-05-14T04:50:06.226Z,466
2023-05-14T04:51:20.634Z,483
2023-05-14T04:52:35.053Z,500
2023-05-14T04:53:49.462Z,510
2023-05-14T04:55:03.875Z,517
2023-05-14T04:56:18.280Z,529
2023-05-14T04:57:32.694Z,540
2023-05-14T04:58:47.119Z,553
2023-05-14T05:00:00.649Z,559
2023-05-14T05:01:15.069Z,577
2023-05-14T05:02:29.492Z,581
2023-05-14T05:03:43.887Z,587
2023-05-14T05:04:58.303Z,606
2023-05-14T05:06:12.709Z,630
2023-05-14T05:07:27.130Z,625
2023-05-14T05:08:41.541Z,617
2023-05-14T05:09:55.959Z,618
2023-05-14T05:11:10.391Z,623
2023-05-14T05:12:24.792Z,621
2023-05-14T05:13:39.207Z,582
2023-05-14T05:14:53.607Z,590
2023-05-14T05:16:08.035Z,598
2023-05-14T05:17:21.564Z,851
2023-05-14T05:18:35.969Z,814
2023-05-14T05:19:50.396Z,672
2023-05-14T05:21:04.821Z,786
2023-05-14T05:22:19.221Z,745
2023-05-14T05:23:33.638Z,668
2023-05-14T05:24:48.042Z,650
2023-05-14T05:26:02.456Z,695
2023-05-14T05:27:16.892Z,686
2023-05-14T05:28:31.287Z,689
2023-05-14T05:29:45.696Z,689
2023-05-14T05:31:00.099Z,689
2023-05-14T05:32:14.513Z,684
2023-05-14T05:34:43.348Z,691
2023-05-14T05:35:57.752Z,691
2023-05-14T05:37:12.168Z,696
2023-05-14T05:38:26.584Z,694
2023-05-14T05:39:40.996Z,695
2023-05-14T05:40:55.425Z,693
2023-05-14T05:42:08.943Z,698
2023-05-14T05:43:23.356Z,713
2023-05-14T05:45:52.182Z,725
2023-05-14T05:47:06.607Z,723
2023-05-14T05:48:21.015Z,716
2023-05-14T05:49:35.438Z,713
2023-05-14T05:50:49.856Z,720
2023-05-14T05:52:04.252Z,726
2023-05-14T05:53:18.674Z,739
2023-05-14T05:54:33.081Z,751
2023-05-14T05:55:47.491Z,757
2023-05-14T05:57:01.922Z,847
2023-05-14T05:58:16.324Z,851
2023-05-14T05:59:29.853Z,829
2023-05-14T06:00:44.289Z,484
2023-05-14T06:01:58.690Z,677
2023-05-14T06:03:13.110Z,1808
2023-05-14T06:05:41.946Z,748
2023-05-14T06:06:56.345Z,1313
2023-05-14T06:08:10.756Z,1321
2023-05-14T06:09:25.169Z,1485
2023-05-14T06:10:39.585Z,1495
2023-05-14T06:11:53.994Z,1513
2023-05-14T06:13:08.415Z,1522
2023-05-14T06:14:22.819Z,1545
2023-05-14T06:15:37.235Z,1560
2023-05-14T06:16:50.771Z,1588
2023-05-14T06:18:05.210Z,1609
2023-05-14T06:19:19.593Z,1637
2023-05-14T06:20:34.024Z,1653
2023-05-14T06:21:48.000Z,1680
2023-05-14T06:23:02.842Z,1700
2023-05-14T06:25:31.673Z,1747
2023-05-14T06:26:46.081Z,1773
2023-05-14T06:28:00.492Z,1803
2023-05-14T06:29:14.921Z,1843
2023-05-14T06:30:29.317Z,1864
2023-05-14T06:31:43.731Z,1882
2023-05-14T06:35:26.971Z,1924
2023-05-14T06:36:40.546Z,1955
2023-05-14T06:37:54.946Z,1953
2023-05-14T06:39:08.492Z,1970
2023-05-14T06:40:22.911Z,1993
2023-05-14T06:41:37.321Z,2025
2023-05-14T06:42:51.717Z,2030
2023-05-14T06:44:06.131Z,2046
2023-05-14T06:46:34.956Z,2069
2023-05-14T06:47:49.389Z,2071
2023-05-14T06:49:03.791Z,2069
2023-05-14T06:50:18.205Z,2085
2023-05-14T06:51:32.615Z,2104
2023-05-14T06:52:47.033Z,2111
2023-05-14T06:55:15.871Z,2127
2023-05-14T06:56:30.268Z,2147
2023-05-14T06:57:43.828Z,2148
2023-05-14T06:58:57.372Z,2163
2023-05-14T07:01:26.195Z,2170
2023-05-14T07:02:40.613Z,2168
2023-05-14T07:05:09.440Z,2183
2023-05-14T07:06:23.858Z,2183
2023-05-14T07:07:38.256Z,2194
2023-05-14T07:08:52.683Z,2207
2023-05-14T07:10:07.090Z,2208
2023-05-14T07:11:21.501Z,2217
2023-05-14T07:12:35.910Z,2229
2023-05-14T07:13:50.321Z,2244
2023-05-14T07:15:03.856Z,2240
2023-05-14T07:16:18.270Z,2243
2023-05-14T07:17:32.000Z,2275
2023-05-14T07:18:47.102Z,2276
2023-05-14T07:20:01.545Z,2231
2023-05-14T07:21:15.938Z,2272
2023-05-14T07:22:30.342Z,2280
2023-05-14T07:23:44.752Z,2278
2023-05-14T07:24:59.176Z,2265
2023-05-14T07:26:13.592Z,2290
2023-05-14T07:27:27.161Z,2346
2023-05-14T07:28:40.675Z,2483
2023-05-14T07:29:55.112Z,2127
2023-05-14T07:31:09.500Z,2169
2023-05-14T07:32:23.937Z,2004
2023-05-14T07:33:38.340Z,1997
2023-05-14T07:34:52.755Z,2071
2023-05-14T07:36:07.166Z,1949
2023-05-14T07:37:21.588Z,1907
2023-05-14T07:39:50.418Z,1966
2023-05-14T07:41:04.815Z,1957
2023-05-14T07:42:19.224Z,1952
2023-05-14T07:43:33.634Z,1927
2023-05-14T07:44:48.048Z,1868
2023-05-14T07:46:02.486Z,1895
2023-05-14T07:47:15.999Z,1919
2023-05-14T07:49:44.824Z,1881
2023-05-14T07:50:59.237Z,1886
2023-05-14T07:52:13.682Z,1913
2023-05-14T07:53:28.064Z,1859
2023-05-14T07:54:42.498Z,1879
2023-05-14T07:55:56.895Z,1837
2023-05-14T07:57:11.330Z,1807
2023-05-14T07:58:25.720Z,1751
2023-05-14T07:59:40.140Z,1616
2023-05-14T08:00:54.561Z,1828
2023-05-14T08:02:08.962Z,1836
2023-05-14T08:03:23.376Z,1790
2023-05-14T08:04:37.788Z,1819
2023-05-14T08:05:51.359Z,2010
2023-05-14T08:07:05.765Z,377
2023-05-14T08:08:19.321Z,1782
2023-05-14T08:09:33.711Z,1801
2023-05-14T08:10:48.134Z,1849
2023-05-14T08:12:02.557Z,1745
2023-05-14T08:13:16.951Z,1975
2023-05-14T08:14:31.384Z,958
2023-05-14T08:15:45.778Z,1016
2023-05-14T08:17:00.207Z,388
2023-05-14T08:18:14.620Z,2137
2023-05-14T08:19:29.026Z,401
2023-05-14T08:20:43.437Z,1744
2023-05-14T08:21:57.856Z,1810
2023-05-14T08:24:26.670Z,1973
2023-05-14T08:25:40.209Z,1899
2023-05-14T08:26:54.623Z,2415
2023-05-14T08:28:09.057Z,1021
2023-05-14T08:29:23.457Z,1800
2023-05-14T08:30:37.877Z,1831
2023-05-14T08:31:52.277Z,1974
2023-05-14T08:33:06.722Z,2025
2023-05-14T08:34:21.238Z,1898
2023-05-14T08:35:35.654Z,1848
2023-05-14T08:36:50.060Z,1952
2023-05-14T08:38:04.463Z,1950
2023-05-14T08:39:18.886Z,1950
2023-05-14T08:40:33.290Z,1876
2023-05-14T08:41:47.708Z,1764
2023-05-14T08:43:02.124Z,1740
2023-05-14T08:44:16.538Z,1809
2023-05-14T08:45:30.963Z,1861
2023-05-14T08:46:45.388Z,1919
2023-05-14T08:47:59.781Z,1827
2023-05-14T08:49:14.195Z,1788
2023-05-14T08:50:28.608Z,2766
2023-05-14T08:51:42.148Z,1662
2023-05-14T08:54:10.975Z,591
2023-05-14T08:55:25.378Z,2994
2023-05-14T08:56:39.818Z,1682
2023-05-14T08:57:54.206Z,802
2023-05-14T08:59:08.646Z,1839
2023-05-14T09:00:23.041Z,2696
2023-05-14T09:01:37.458Z,2044
2023-05-14T09:02:51.873Z,644
2023-05-14T09:04:06.271Z,2747
2023-05-14T09:05:20.692Z,2473
2023-05-14T09:06:35.128Z,1617
2023-05-14T09:07:49.531Z,1535
2023-05-14T09:09:03.065Z,694
2023-05-14T09:10:17.469Z,1661
2023-05-14T09:11:31.892Z,2206
2023-05-14T09:12:46.300Z,2264
2023-05-14T09:14:00.728Z,2212
2023-05-14T09:15:15.130Z,2336
2023-05-14T09:16:29.552Z,2258
2023-05-14T09:18:58.374Z,2675
2023-05-14T09:20:12.799Z,2374
2023-05-14T09:21:27.184Z,1615
2023-05-14T09:22:41.601Z,1527
2023-05-14T09:23:56.012Z,1399
2023-05-14T09:25:10.461Z,1484
2023-05-14T09:26:24.853Z,1439
2023-05-14T09:27:38.389Z,1271
2023-05-14T09:28:52.790Z,1258
2023-05-14T09:30:07.202Z,1461
2023-05-14T09:31:21.619Z,1494
2023-05-14T09:32:36.046Z,1548
2023-05-14T09:33:50.468Z,1592
2023-05-14T09:35:04.859Z,1499
2023-05-14T09:36:19.289Z,1573
2023-05-14T09:37:33.695Z,1707
2023-05-14T09:38:48.124Z,1810
2023-05-14T09:40:02.514Z,1737
2023-05-14T09:41:16.932Z,1652
2023-05-14T09:42:31.345Z,1642
2023-05-14T09:43:44.883Z,1566
2023-05-14T09:44:59.311Z,1440
2023-05-14T09:46:13.731Z,1158
2023-05-14T09:47:28.131Z,1507
2023-05-14T09:48:42.551Z,1164
2023-05-14T09:49:56.953Z,1172
2023-05-14T09:51:11.357Z,1189
2023-05-14T09:52:25.774Z,1198
2023-05-14T09:53:40.187Z,1159
2023-05-14T09:54:54.621Z,1115
2023-05-14T09:56:09.022Z,1060
2023-05-14T09:57:23.436Z,1056
2023-05-14T09:58:37.845Z,1108
2023-05-14T09:59:52.251Z,1101
2023-05-14T10:01:05.784Z,1104
2023-05-14T10:02:20.217Z,1163
2023-05-14T10:03:34.641Z,1243
2023-05-14T10:04:49.026Z,1289
2023-05-14T10:06:03.466Z,1340
2023-05-14T10:07:17.858Z,1419
2023-05-14T10:08:32.282Z,1439
2023-05-14T10:09:46.693Z,1347
2023-05-14T10:11:01.111Z,1380
2023-05-14T10:12:15.525Z,1479
2023-05-14T10:13:29.946Z,1537
2023-05-14T10:14:44.336Z,1534
2023-05-14T10:17:13.178Z,1499
2023-05-14T10:18:27.587Z,1533
2023-05-14T10:19:41.135Z,1516
2023-05-14T10:20:55.526Z,1536
2023-05-14T10:23:24.363Z,1549
2023-05-14T10:24:38.767Z,1531
2023-05-14T10:25:53.206Z,926
2023-05-14T10:27:07.608Z,1665
2023-05-14T10:28:22.013Z,2190
2023-05-14T10:29:36.431Z,3062
2023-05-14T10:30:50.852Z,1789
2023-05-14T10:32:05.257Z,1406
2023-05-14T10:33:19.691Z,1079
2023-05-14T10:34:34.087Z,2625
2023-05-14T10:35:48.514Z,2796
2023-05-14T10:37:02.904Z,2118
2023-05-14T10:38:16.467Z,2160
2023-05-14T10:39:30.853Z,2112
2023-05-14T10:40:45.271Z,1955
2023-05-14T10:43:14.103Z,1773
2023-05-14T10:44:28.516Z,1666
2023-05-14T10:45:42.954Z,1718
2023-05-14T10:46:57.339Z,1639
2023-05-14T10:48:11.749Z,1630
2023-05-14T10:49:26.163Z,1531
2023-05-14T10:50:40.583Z,1600
2023-05-14T10:53:09.402Z,1741
2023-05-14T10:54:23.824Z,1682
2023-05-14T10:55:38.235Z,1551
2023-05-14T10:56:51.782Z,1429
2023-05-14T10:58:06.183Z,1342
2023-05-14T10:59:20.608Z,1333
2023-05-14T11:00:35.032Z,1229
2023-05-14T11:03:03.839Z,1043
2023-05-14T11:04:17.402Z,959
2023-05-14T11:05:30.929Z,898
2023-05-14T11:07:59.768Z,816
2023-05-14T11:09:14.194Z,819
2023-05-14T11:10:28.591Z,839
2023-05-14T11:12:57.410Z,831
2023-05-14T11:14:11.831Z,819
2023-05-14T11:15:26.243Z,807
2023-05-14T11:16:40.674Z,746
2023-05-14T11:17:55.076Z,720
2023-05-14T11:19:09.484Z,634
2023-05-14T11:21:38.335Z,458
2023-05-14T11:22:52.747Z,419
2023-05-14T11:25:21.578Z,359
2023-05-14T11:27:50.371Z,348
2023-05-14T11:29:04.789Z,351
2023-05-14T11:31:32.782Z,362
2023-05-14T11:32:47.165Z,378
2023-05-14T11:34:01.582Z,393
2023-05-14T11:35:16.003Z,392
2023-05-14T11:37:44.831Z,407
2023-05-14T11:38:59.241Z,422
2023-05-14T11:41:27.220Z,434
2023-05-14T11:42:41.617Z,436
2023-05-14T11:43:56.060Z,445
2023-05-14T11:45:10.479Z,456
2023-05-14T11:47:38.431Z,469
2023-05-14T11:48:52.845Z,464
2023-05-14T11:50:07.270Z,469
2023-05-14T11:51:20.845Z,481
2023-05-14T11:52:35.220Z,480
2023-05-14T11:53:49.635Z,482
2023-05-14T11:55:04.047Z,488
2023-05-14T11:56:17.580Z,498
2023-05-14T11:57:31.994Z,515
2023-05-14T11:58:46.419Z,522
2023-05-14T12:01:15.265Z,526
2023-05-14T12:02:29.658Z,525
2023-05-14T12:03:44.070Z,537
2023-05-14T12:04:58.512Z,557
2023-05-14T12:06:12.884Z,574
2023-05-14T12:08:41.727Z,607
2023-05-14T12:09:56.136Z,623
2023-05-14T12:11:10.552Z,630
2023-05-14T12:12:24.958Z,631
2023-05-14T12:13:39.368Z,637
2023-05-14T12:14:53.783Z,628
2023-05-14T12:16:08.198Z,617
2023-05-14T12:17:22.617Z,616
2023-05-14T12:18:37.033Z,611
2023-05-14T12:19:50.593Z,609
2023-05-14T12:22:19.393Z,611
2023-05-14T12:23:33.809Z,626
2023-05-14T12:24:48.253Z,642
2023-05-14T12:26:02.631Z,660
2023-05-14T12:27:17.043Z,683
2023-05-14T12:28:31.458Z,707
2023-05-14T12:29:45.866Z,741
2023-05-14T12:31:00.283Z,755
2023-05-14T12:32:14.704Z,755
2023-05-14T12:33:29.119Z,750
2023-05-14T12:34:42.695Z,742
2023-05-14T12:35:57.088Z,752
2023-05-14T12:38:25.936Z,789
2023-05-14T12:39:40.350Z,817
2023-05-14T12:42:08.271Z,896
2023-05-14T12:43:22.698Z,941
2023-05-14T12:44:36.250Z,970
2023-05-14T12:45:50.646Z,994
2023-05-14T12:47:05.045Z,1014
2023-05-14T12:48:19.462Z,1023
2023-05-14T12:49:33.045Z,1022
2023-05-14T12:50:46.582Z,1022
2023-05-14T12:52:00.961Z,1020
2023-05-14T12:53:15.391Z,1024
2023-05-14T12:54:29.792Z,1027
2023-05-14T12:55:44.203Z,1052
2023-05-14T12:56:58.659Z,1075
2023-05-14T12:58:13.046Z,1104
2023-05-14T12:59:27.453Z,1128
2023-05-14T13:00:41.862Z,1160
2023-05-14T13:01:56.000Z,1184
2023-05-14T13:03:10.697Z,1204
2023-05-14T13:04:24.249Z,1198
2023-05-14T13:05:37.779Z,1178
2023-05-14T13:06:52.195Z,1172
2023-05-14T13:08:06.609Z,1198
2023-05-14T13:09:21.023Z,1244
2023-05-14T13:10:35.433Z,1261
2023-05-14T13:11:49.850Z,1248
2023-05-14T13:13:04.264Z,1229
2023-05-14T13:14:18.687Z,1214
2023-05-14T13:15:33.085Z,1225
2023-05-14T13:16:47.510Z,1257
2023-05-14T13:18:01.926Z,1291
2023-05-14T13:19:16.332Z,1306
2023-05-14T13:21:44.316Z,1327
2023-05-14T13:22:58.716Z,1339
2023-05-14T13:24:12.253Z,1341
2023-05-14T13:25:26.658Z,1365
2023-05-14T13:26:41.091Z,1424
2023-05-14T13:27:55.503Z,1487
2023-05-14T13:29:09.940Z,1545
2023-05-14T13:30:23.468Z,1586
2023-05-14T13:31:37.000Z,1607
2023-05-14T13:32:51.412Z,1598
2023-05-14T13:34:05.817Z,1571
2023-05-14T13:35:20.237Z,1540
2023-05-14T13:36:34.656Z,1524
2023-05-14T13:37:49.060Z,1544
2023-05-14T13:39:03.483Z,1568
2023-05-14T13:40:17.899Z,1634
2023-05-14T13:41:32.308Z,1764
2023-05-14T13:42:46.720Z,1934
2023-05-14T13:45:15.579Z,2409
2023-05-14T13:46:29.968Z,2509
2023-05-14T13:47:43.498Z,2623
2023-05-14T13:48:57.920Z,2621
2023-05-14T13:50:12.318Z,2505
2023-05-14T13:51:26.777Z,2370
2023-05-14T13:52:41.151Z,2275
2023-05-14T13:53:55.571Z,2241
2023-05-14T13:55:09.977Z,2289
2023-05-14T13:56:24.392Z,2314
2023-05-14T13:57:38.803Z,2309
2023-05-14T13:58:53.216Z,2287
2023-05-14T14:00:07.630Z,2334
2023-05-14T14:01:22.041Z,2309
2023-05-14T14:02:36.468Z,2395
2023-05-14T14:05:04.415Z,2565
2023-05-14T14:06:18.820Z,2414
2023-05-14T14:07:33.228Z,2327
2023-05-14T14:08:47.658Z,2332
2023-05-14T14:10:02.057Z,1191
2023-05-14T14:11:16.484Z,5297
2023-05-14T14:12:30.895Z,3176
2023-05-14T14:13:45.298Z,4838
2023-05-14T14:14:59.723Z,3229
2023-05-14T14:16:14.133Z,3046
2023-05-14T14:17:28.580Z,3040
2023-05-14T14:18:43.001Z,3047
2023-05-14T14:19:57.418Z,2936
2023-05-14T14:21:10.904Z,2792
2023-05-14T14:22:25.331Z,1910
2023-05-14T14:24:54.142Z,5991
2023-05-14T14:26:08.596Z,3560
2023-05-14T14:27:22.974Z,3315
2023-05-14T14:28:37.386Z,2431
2023-05-14T14:29:51.798Z,5654
2023-05-14T14:31:06.211Z,4534
2023-05-14T14:32:20.633Z,6180
2023-05-14T14:33:35.055Z,4188
2023-05-14T14:34:49.497Z,4082
2023-05-14T14:36:03.905Z,4231
2023-05-14T14:37:17.404Z,4049
2023-05-14T14:38:31.833Z,3562
2023-05-14T14:39:46.226Z,3127
2023-05-14T14:41:00.683Z,5164
2023-05-14T14:42:15.074Z,6589
2023-05-14T14:43:29.469Z,4738
2023-05-14T14:44:43.897Z,4469
2023-05-14T14:45:58.302Z,4909
2023-05-14T14:47:12.720Z,4183
2023-05-14T14:48:27.122Z,5313
2023-05-14T14:49:41.545Z,6051
2023-05-14T14:50:55.965Z,6337
2023-05-14T14:52:10.367Z,5837
2023-05-14T14:53:23.915Z,5150
2023-05-14T14:55:52.735Z,4169
2023-05-14T14:57:07.151Z,4150
2023-05-14T14:59:35.988Z,5054
2023-05-14T15:00:50.382Z,5090
2023-05-14T15:02:04.805Z,5002
2023-05-14T15:04:33.630Z,4977
2023-05-14T15:05:47.199Z,4748
2023-05-14T15:07:01.595Z,4157
2023-05-14T15:08:15.145Z,5165
2023-05-14T15:10:43.965Z,3808
2023-05-14T15:11:58.413Z,19243
2023-05-14T15:14:27.202Z,23407
2023-05-14T15:15:41.609Z,13492
2023-05-14T15:16:56.035Z,4232
2023-05-14T15:19:24.855Z,18984
2023-05-14T15:20:39.277Z,15168
2023-05-14T15:21:52.825Z,18257
2023-05-14T15:23:06.354Z,11597
2023-05-14T15:24:20.788Z,6674
2023-05-14T15:25:35.200Z,7299
2023-05-14T15:26:49.597Z,6296
2023-05-14T15:28:04.021Z,16272
2023-05-14T15:29:18.441Z,13314
2023-05-14T15:30:32.858Z,7138
2023-05-14T15:31:47.291Z,3678
2023-05-14T15:33:01.675Z,17440
2023-05-14T15:34:15.223Z,73041
2023-05-14T15:35:29.636Z,74694
2023-05-14T15:36:44.106Z,73177
2023-05-14T15:37:57.592Z,28773
2023-05-14T15:39:12.007Z,71949
2023-05-14T15:40:26.427Z,31779
2023-05-14T15:41:40.872Z,14084
2023-05-14T15:44:09.655Z,2903
2023-05-14T15:45:24.084Z,10418
2023-05-14T15:46:38.493Z,67460
2023-05-14T15:47:52.898Z,20946
2023-05-14T15:49:07.309Z,14116
2023-05-14T15:50:21.729Z,31172
2023-05-14T15:51:36.188Z,9112
2023-05-14T15:52:50.563Z,27521
2023-05-14T15:54:04.087Z,8732
2023-05-14T15:55:18.498Z,10921
2023-05-14T15:56:32.914Z,17351
2023-05-14T15:57:47.332Z,8228
2023-05-14T15:59:01.738Z,7142
2023-05-14T16:00:15.312Z,5285
2023-05-14T16:01:28.829Z,4607
2023-05-14T16:02:43.258Z,3568
2023-05-14T16:03:57.663Z,2741
2023-05-14T16:05:12.074Z,2569
2023-05-14T16:08:55.328Z,2162
2023-05-14T16:10:09.725Z,2783
2023-05-14T16:11:24.144Z,4486
2023-05-14T16:12:38.556Z,3781
2023-05-14T16:13:52.982Z,2303
2023-05-14T16:15:07.429Z,2024
2023-05-14T16:16:20.945Z,1629
2023-05-14T16:17:34.478Z,1388
2023-05-14T16:18:48.898Z,1192
2023-05-14T16:20:03.309Z,1176
2023-05-14T16:21:17.725Z,1270
2023-05-14T16:22:32.144Z,1346
2023-05-14T16:23:46.544Z,1261
2023-05-14T16:25:00.950Z,1405
2023-05-14T16:26:15.411Z,1764
2023-05-14T16:27:29.796Z,1653
2023-05-14T16:28:43.347Z,1682
2023-05-14T16:29:57.791Z,1704
2023-05-14T16:31:12.219Z,1686
2023-05-14T16:32:26.579Z,1060
2023-05-14T16:33:40.989Z,3708
2023-05-14T16:34:55.416Z,23562
2023-05-14T16:36:08.000Z,7435
2023-05-14T16:37:23.350Z,3156
2023-05-14T16:38:37.809Z,3538
2023-05-14T16:39:52.197Z,3551
2023-05-14T16:41:06.654Z,3257
2023-05-14T16:42:21.069Z,3123
2023-05-14T16:43:35.425Z,2885
2023-05-14T16:44:49.832Z,2878
2023-05-14T16:46:04.299Z,2947
2023-05-14T16:47:18.661Z,2822
2023-05-14T16:48:33.080Z,2771
2023-05-14T16:49:47.487Z,2683
2023-05-14T16:51:01.944Z,2396
2023-05-14T16:52:15.000Z,2442
2023-05-14T16:53:29.856Z,2580
2023-05-14T16:54:44.263Z,2658
2023-05-14T16:55:58.674Z,2664
2023-05-14T16:57:13.091Z,2640
2023-05-14T16:58:27.507Z,2619
2023-05-14T16:59:42.047Z,2585
2023-05-14T17:00:56.450Z,2513
2023-05-14T17:03:25.331Z,2276
2023-05-14T17:04:39.697Z,2164
2023-05-14T17:05:54.152Z,2086
2023-05-14T17:07:08.576Z,2048
2023-05-14T17:08:22.947Z,2042
2023-05-14T17:09:37.361Z,2015
2023-05-14T17:10:51.767Z,1920
2023-05-14T17:14:35.005Z,1860
2023-05-14T17:18:17.398Z,1608
2023-05-14T17:19:30.941Z,1583
2023-05-14T17:20:45.354Z,1539
2023-05-14T17:21:59.832Z,1540
2023-05-14T17:23:14.184Z,1590
2023-05-14T17:24:28.596Z,1584
2023-05-14T17:25:43.016Z,1487
2023-05-14T17:26:56.562Z,1420
2023-05-14T17:28:11.009Z,1373
2023-05-14T17:29:25.372Z,1300
2023-05-14T17:30:39.786Z,1327
2023-05-14T17:33:08.662Z,1366
2023-05-14T17:34:23.052Z,1375
2023-05-14T17:35:37.463Z,1296
2023-05-14T17:36:51.863Z,1243
2023-05-14T17:38:06.274Z,1188
2023-05-14T17:39:20.698Z,1130
2023-05-14T17:40:35.110Z,1124
2023-05-14T17:41:49.573Z,1084
2023-05-14T17:43:04.059Z,1082
2023-05-14T17:44:18.515Z,1113
2023-05-14T17:45:32.924Z,1039
2023-05-14T17:46:47.305Z,947
2023-05-14T17:48:01.710Z,958
2023-05-14T17:49:16.124Z,900
2023-05-14T17:50:29.683Z,800
2023-05-14T17:51:44.108Z,819
2023-05-14T17:52:58.544Z,821
2023-05-14T17:54:12.928Z,789
2023-05-14T17:55:26.451Z,793
2023-05-14T17:57:55.283Z,702
2023-05-14T17:59:09.738Z,638
2023-05-14T18:00:24.120Z,563
2023-05-14T18:01:38.570Z,548
2023-05-14T18:02:52.933Z,531
2023-05-14T18:04:07.356Z,460
2023-05-14T18:05:21.802Z,381
2023-05-14T18:06:36.179Z,328
2023-05-14T18:07:50.637Z,279
2023-05-14T18:09:05.056Z,228
2023-05-14T18:10:19.426Z,214
2023-05-14T18:12:47.376Z,194
2023-05-14T18:14:01.820Z,179
2023-05-14T18:15:16.202Z,164
2023-05-14T18:17:45.026Z,143
2023-05-14T18:18:59.441Z,138
2023-05-14T18:20:13.893Z,132
2023-05-14T18:21:28.269Z,114
2023-05-14T18:22:42.677Z,96
2023-05-14T18:23:57.099Z,93
2023-05-14T18:25:11.514Z,92
2023-05-14T18:26:25.915Z,85